createdAt,value
2022-09-26T00:01:32.307Z,96730.09
2022-09-26T00:04:03.446Z,96744.28
2022-09-26T00:06:29.948Z,96733.94
2022-09-26T00:08:56.948Z,96736.63
2022-09-26T00:11:31.992Z,96735.19
2022-09-26T00:14:02.664Z,96731.06
2022-09-26T00:16:29.144Z,96723.59
2022-09-26T00:18:58.937Z,96715.66
2022-09-26T00:21:27.198Z,96718.44
2022-09-26T00:23:54.427Z,96720.72
2022-09-26T00:26:22.400Z,96718.63
2022-09-26T00:28:49.672Z,96715.28
2022-09-26T00:31:18.974Z,96700.94
2022-09-26T00:33:45.820Z,96696.53
2022-09-26T00:36:12.156Z,96706.00
2022-09-26T00:38:39.317Z,96705.06
2022-09-26T00:41:07.141Z,96687.56
2022-09-26T00:43:41.733Z,96692.72
2022-09-26T00:46:14.045Z,96696.06
2022-09-26T00:48:43.299Z,96689.47
2022-09-26T00:51:11.024Z,96685.91
2022-09-26T00:53:48.940Z,96695.03
2022-09-26T00:56:20.840Z,96688.47
2022-09-26T00:59:04.037Z,96692.34
2022-09-26T01:01:31.114Z,96689.97
2022-09-26T01:03:59.041Z,96677.56
2022-09-26T01:06:25.774Z,96680.34
2022-09-26T01:09:00.784Z,96678.78
2022-09-26T01:11:28.957Z,96669.63
2022-09-26T01:13:57.018Z,96667.63
2022-09-26T01:16:23.867Z,96653.06
2022-09-26T01:18:51.373Z,96656.81
2022-09-26T01:21:46.710Z,96658.88
2022-09-26T01:24:56.705Z,96640.13
2022-09-26T01:27:43.865Z,96655.41
2022-09-26T01:30:14.171Z,96651.38
2022-09-26T01:33:07.502Z,96647.75
2022-09-26T01:35:52.304Z,96652.25
2022-09-26T01:38:40.570Z,96647.31
2022-09-26T01:41:19.069Z,96654.66
2022-09-26T01:44:06.517Z,96642.81
2022-09-26T01:46:56.814Z,96636.50
2022-09-26T01:49:31.342Z,96632.09
2022-09-26T01:52:09.824Z,96628.28
2022-09-26T01:54:45.492Z,96632.88
2022-09-26T01:57:20.984Z,96623.22
2022-09-26T01:59:53.270Z,96603.91
2022-09-26T02:02:27.322Z,96612.50
2022-09-26T02:04:59.892Z,96606.22
2022-09-26T02:07:55.113Z,96596.22
2022-09-26T02:10:35.940Z,96596.22
2022-09-26T02:13:11.445Z,96589.38
2022-09-26T02:15:40.408Z,96589.69
2022-09-26T02:18:24.196Z,96591.94
2022-09-26T02:21:01.168Z,96584.81
2022-09-26T02:23:27.641Z,96573.28
2022-09-26T02:25:54.306Z,96576.88
2022-09-26T02:28:22.108Z,96564.72
2022-09-26T02:30:51.184Z,96558.63
2022-09-26T02:33:18.085Z,96559.84
2022-09-26T02:35:57.348Z,96563.63
2022-09-26T02:38:27.246Z,96566.47
2022-09-26T02:41:22.467Z,96564.00
2022-09-26T02:44:04.069Z,96557.78
2022-09-26T02:47:00.489Z,96552.78
2022-09-26T02:49:32.762Z,96562.34
2022-09-26T02:52:35.328Z,96554.72
2022-09-26T02:55:37.948Z,96548.00
2022-09-26T02:58:35.868Z,96544.81
2022-09-26T03:01:11.199Z,96547.81
2022-09-26T03:03:47.634Z,96536.09
2022-09-26T03:06:17.861Z,96532.97
2022-09-26T03:08:47.721Z,96512.94
2022-09-26T03:11:18.467Z,96504.94
2022-09-26T03:13:45.793Z,96525.66
2022-09-26T03:16:14.229Z,96515.00
2022-09-26T03:18:50.076Z,96513.00
2022-09-26T03:21:17.424Z,96512.88
2022-09-26T03:23:44.040Z,96514.41
2022-09-26T03:26:18.369Z,96508.94
2022-09-26T03:28:45.126Z,96513.72
2022-09-26T03:31:11.564Z,96498.78
2022-09-26T03:33:37.903Z,96510.81
2022-09-26T03:36:09.445Z,96493.91
2022-09-26T03:38:35.810Z,96492.56
2022-09-26T03:41:02.629Z,96473.44
2022-09-26T03:43:29.942Z,96471.91
2022-09-26T03:45:56.429Z,96479.25
2022-09-26T03:48:22.866Z,96473.03
2022-09-26T03:50:49.287Z,96462.78
2022-09-26T03:53:15.620Z,96462.50
2022-09-26T03:55:42.044Z,96460.13
2022-09-26T03:58:08.477Z,96451.72
2022-09-26T04:00:35.002Z,96443.78
2022-09-26T04:03:04.288Z,96451.88
2022-09-26T04:05:30.969Z,96453.09
2022-09-26T04:07:59.081Z,96447.47
2022-09-26T04:10:25.441Z,96426.59
2022-09-26T04:12:51.788Z,96439.44
2022-09-26T04:15:18.178Z,96428.47
2022-09-26T04:17:44.551Z,96436.38
2022-09-26T04:20:10.914Z,96428.16
2022-09-26T04:22:37.328Z,96417.19
2022-09-26T04:25:03.904Z,96427.13
2022-09-26T04:27:31.153Z,96424.41
2022-09-26T04:29:57.514Z,96417.44
2022-09-26T04:32:24.782Z,96418.66
2022-09-26T04:34:51.214Z,96407.69
2022-09-26T04:37:18.349Z,96393.34
2022-09-26T04:39:44.709Z,96390.91
2022-09-26T04:42:11.049Z,96399.94
2022-09-26T04:44:37.414Z,96390.97
2022-09-26T04:47:03.822Z,96394.78
2022-09-26T04:49:30.991Z,96397.22
2022-09-26T04:51:57.329Z,96386.13
2022-09-26T04:54:24.008Z,96386.56
2022-09-26T04:56:50.363Z,96385.19
2022-09-26T04:59:16.745Z,96388.84
2022-09-26T05:01:43.175Z,96367.53
2022-09-26T05:04:10.025Z,96368.75
2022-09-26T05:06:36.385Z,96375.59
2022-09-26T05:09:04.154Z,96347.59
2022-09-26T05:11:32.422Z,96364.19
2022-09-26T05:13:58.787Z,96366.94
2022-09-26T05:16:28.261Z,96361.91
2022-09-26T05:18:55.900Z,96363.91
2022-09-26T05:21:22.532Z,96361.59
2022-09-26T05:24:07.184Z,96357.97
2022-09-26T05:26:47.438Z,96363.41
2022-09-26T05:29:14.171Z,96362.69
2022-09-26T05:31:40.744Z,96362.06
2022-09-26T05:34:13.136Z,96351.44
2022-09-26T05:36:42.888Z,96351.28
2022-09-26T05:39:27.764Z,96354.94
2022-09-26T05:41:54.550Z,96353.09
2022-09-26T05:44:21.118Z,96337.38
2022-09-26T05:46:47.549Z,96343.66
2022-09-26T05:49:14.815Z,96339.25
2022-09-26T05:51:41.372Z,96347.31
2022-09-26T05:54:07.714Z,96337.59
2022-09-26T05:56:37.315Z,96340.81
2022-09-26T05:59:04.386Z,96342.66
2022-09-26T06:01:33.638Z,96348.19
2022-09-26T06:04:00.123Z,96347.63
2022-09-26T06:06:26.599Z,96343.56
2022-09-26T06:08:52.956Z,96340.41
2022-09-26T06:11:24.934Z,96340.00
2022-09-26T06:13:51.306Z,96343.06
2022-09-26T06:16:20.933Z,96331.63
2022-09-26T06:18:50.567Z,96337.84
2022-09-26T06:21:18.803Z,96328.25
2022-09-26T06:23:45.702Z,96329.91
2022-09-26T06:26:17.968Z,96330.03
2022-09-26T06:28:44.423Z,96324.34
2022-09-26T06:31:16.683Z,96324.94
2022-09-26T06:33:43.214Z,96315.47
2022-09-26T06:36:11.489Z,96318.44
2022-09-26T06:38:38.711Z,96310.19
2022-09-26T06:41:07.301Z,96319.44
2022-09-26T06:43:33.917Z,96309.50
2022-09-26T06:46:00.612Z,96310.22
2022-09-26T06:48:27.327Z,96306.66
2022-09-26T06:50:55.820Z,96307.66
2022-09-26T06:53:22.668Z,96300.91
2022-09-26T06:55:49.473Z,96301.66
2022-09-26T06:58:15.949Z,96305.09
2022-09-26T07:00:42.379Z,96298.50
2022-09-26T07:03:08.850Z,96301.50
2022-09-26T07:05:35.351Z,96289.50
2022-09-26T07:08:02.603Z,96288.41
2022-09-26T07:10:34.613Z,96281.72
2022-09-26T07:13:03.944Z,96294.31
2022-09-26T07:15:33.475Z,96294.13
2022-09-26T07:18:02.642Z,96291.81
2022-09-26T07:20:35.857Z,96290.81
2022-09-26T07:23:03.454Z,96292.25
2022-09-26T07:25:33.401Z,96281.09
2022-09-26T07:28:01.018Z,96285.53
2022-09-26T07:30:28.252Z,96279.88
2022-09-26T07:33:03.607Z,96279.66
2022-09-26T07:35:32.155Z,96281.41
2022-09-26T07:37:59.321Z,96271.88
2022-09-26T07:40:26.451Z,96285.84
2022-09-26T07:43:09.520Z,96270.78
2022-09-26T07:45:57.978Z,96268.09
2022-09-26T07:48:42.764Z,96276.00
2022-09-26T07:51:11.891Z,96271.56
2022-09-26T07:53:41.196Z,96268.31
2022-09-26T07:56:11.001Z,96269.50
2022-09-26T07:58:42.237Z,96267.44
2022-09-26T08:01:11.336Z,96276.44
2022-09-26T08:03:50.145Z,96266.59
2022-09-26T08:06:20.753Z,96257.06
2022-09-26T08:08:48.157Z,96251.75
2022-09-26T08:11:16.709Z,96261.59
2022-09-26T08:13:44.447Z,96246.84
2022-09-26T08:16:11.777Z,96252.72
2022-09-26T08:18:38.248Z,96247.94
2022-09-26T08:21:08.202Z,96237.97
2022-09-26T08:23:34.816Z,96237.66
2022-09-26T08:26:06.934Z,96243.72
2022-09-26T08:28:34.677Z,96247.50
2022-09-26T08:31:02.989Z,96248.03
2022-09-26T08:33:29.691Z,96243.91
2022-09-26T08:36:01.958Z,96242.59
2022-09-26T08:38:28.315Z,96239.88
2022-09-26T08:41:06.891Z,96244.97
2022-09-26T08:43:45.321Z,96250.31
2022-09-26T08:46:44.346Z,96245.13
2022-09-26T08:49:36.778Z,96241.09
2022-09-26T08:52:17.361Z,96235.56
2022-09-26T08:54:46.214Z,96224.97
2022-09-26T08:57:28.473Z,96236.75
2022-09-26T08:59:55.255Z,96238.91
2022-09-26T09:03:00.139Z,96234.03
2022-09-26T09:05:34.067Z,96231.41
2022-09-26T09:08:07.972Z,96217.88
2022-09-26T09:11:16.412Z,96229.13
2022-09-26T09:13:53.460Z,96224.22
2022-09-26T09:16:32.120Z,96231.47
2022-09-26T09:19:13.741Z,96219.47
2022-09-26T09:21:46.148Z,96216.03
2022-09-26T09:24:43.495Z,96222.00
2022-09-26T09:31:03.822Z,96215.22
2022-09-26T09:33:45.317Z,96202.69
2022-09-26T09:36:15.625Z,96200.09
2022-09-26T09:38:45.864Z,96207.25
2022-09-26T09:41:34.745Z,96201.69
2022-09-26T09:44:05.531Z,96188.38
2022-09-26T09:46:36.501Z,96197.06
2022-09-26T09:49:09.263Z,96197.66
2022-09-26T09:51:39.418Z,96187.84
2022-09-26T09:54:41.137Z,96182.97
2022-09-26T09:57:19.364Z,96190.09
2022-09-26T10:00:06.430Z,96173.31
2022-09-26T10:02:47.553Z,96172.22
2022-09-26T10:05:24.886Z,96175.59
2022-09-26T10:07:59.038Z,96167.81
2022-09-26T10:10:46.478Z,96177.13
2022-09-26T10:13:12.989Z,96160.66
2022-09-26T10:15:48.406Z,96175.50
2022-09-26T10:18:24.662Z,96171.28
2022-09-26T10:20:59.382Z,96166.59
2022-09-26T10:23:45.401Z,96160.22
2022-09-26T10:26:13.686Z,96164.72
2022-09-26T10:28:48.329Z,96168.50
2022-09-26T10:31:29.197Z,96157.47
2022-09-26T10:33:59.269Z,96147.94
2022-09-26T10:36:37.037Z,96160.13
2022-09-26T10:39:36.261Z,96151.03
2022-09-26T10:42:04.614Z,96148.09
2022-09-26T10:44:35.071Z,96146.59
2022-09-26T10:47:08.181Z,96142.38
2022-09-26T10:49:40.041Z,96136.88
2022-09-26T10:52:18.895Z,96155.69
2022-09-26T10:55:28.341Z,96149.31
2022-09-26T10:57:58.622Z,96153.31
2022-09-26T11:00:33.784Z,96156.97
2022-09-26T11:03:00.637Z,96144.88
2022-09-26T11:05:45.599Z,96149.66
2022-09-26T11:08:14.059Z,96134.50
2022-09-26T11:10:41.952Z,96146.41
2022-09-26T11:13:26.223Z,96151.69
2022-09-26T11:16:03.002Z,96142.97
2022-09-26T11:18:51.681Z,96134.75
2022-09-26T11:21:34.236Z,96134.00
2022-09-26T11:24:22.758Z,96128.41
2022-09-26T11:27:19.255Z,96120.72
2022-09-26T11:29:59.873Z,96123.41
2022-09-26T11:32:30.060Z,96113.22
2022-09-26T11:35:02.467Z,96118.94
2022-09-26T11:37:40.740Z,96106.59
2022-09-26T11:40:41.279Z,96119.97
2022-09-26T11:43:28.931Z,96109.28
2022-09-26T11:46:14.871Z,96113.41
2022-09-26T11:49:00.864Z,96113.34
2022-09-26T11:51:46.176Z,96112.81
2022-09-26T11:54:18.525Z,96108.94
2022-09-26T11:56:56.872Z,96094.09
2022-09-26T12:00:01.614Z,96104.09
2022-09-26T12:02:57.402Z,96097.38
2022-09-26T12:05:48.958Z,96080.16
2022-09-26T12:08:37.492Z,96086.31
2022-09-26T12:11:34.842Z,96082.63
2022-09-26T12:14:13.870Z,96070.63
2022-09-26T12:17:16.006Z,96085.09
2022-09-26T12:20:14.045Z,96074.78
2022-09-26T12:22:48.925Z,96066.38
2022-09-26T12:25:24.080Z,96066.03
2022-09-26T12:28:12.772Z,96047.06
2022-09-26T12:30:57.775Z,96044.81
2022-09-26T12:33:45.419Z,96040.03
2022-09-26T12:36:47.644Z,96026.38
2022-09-26T12:39:41.838Z,96019.28
2022-09-26T12:42:25.478Z,96018.72
2022-09-26T12:44:57.823Z,96008.78
2022-09-26T12:47:43.306Z,95996.88
2022-09-26T12:50:42.129Z,95999.91
2022-09-26T12:53:11.566Z,95998.16
2022-09-26T12:55:58.375Z,95987.16
2022-09-26T12:58:46.725Z,95979.88
2022-09-26T13:01:33.637Z,95987.59
2022-09-26T13:04:20.843Z,95984.59
2022-09-26T13:07:18.236Z,95969.03
2022-09-26T13:09:48.281Z,95974.19
2022-09-26T13:12:21.136Z,95971.38
2022-09-26T13:15:08.001Z,95965.25
2022-09-26T13:17:45.996Z,95951.59
2022-09-26T13:20:36.598Z,95958.63
2022-09-26T13:23:10.940Z,95941.28
2022-09-26T13:25:48.746Z,95922.13
2022-09-26T13:28:38.237Z,95935.22
2022-09-26T13:31:17.007Z,95931.97
2022-09-26T13:34:16.898Z,95913.91
2022-09-26T13:36:44.824Z,95913.09
2022-09-26T13:39:23.260Z,95908.19
2022-09-26T13:42:06.544Z,95900.25
2022-09-26T13:45:12.571Z,95898.31
2022-09-26T13:47:55.394Z,95897.97
2022-09-26T13:50:43.657Z,95899.22
2022-09-26T13:53:33.394Z,95896.72
2022-09-26T13:56:33.939Z,95894.09
2022-09-26T13:59:25.802Z,95886.88
2022-09-26T14:02:16.818Z,95895.25
2022-09-26T14:04:48.152Z,95879.25
2022-09-26T14:07:40.933Z,95887.34
2022-09-26T14:10:35.879Z,95876.69
2022-09-26T14:13:15.230Z,95879.72
2022-09-26T14:15:50.400Z,95878.53
2022-09-26T14:18:52.155Z,95872.75
2022-09-26T14:21:34.038Z,95867.13
2022-09-26T14:24:25.522Z,95873.38
2022-09-26T14:27:09.900Z,95847.84
2022-09-26T14:29:39.220Z,95860.28
2022-09-26T14:32:18.996Z,95851.88
2022-09-26T14:34:48.586Z,95858.34
2022-09-26T14:37:24.519Z,95831.91
2022-09-26T14:40:14.093Z,95841.38
2022-09-26T14:42:43.555Z,95835.91
2022-09-26T14:45:31.075Z,95834.75
2022-09-26T14:48:19.223Z,95826.19
2022-09-26T14:51:06.238Z,95821.59
2022-09-26T14:53:50.532Z,95798.41
2022-09-26T14:56:37.186Z,95816.25
2022-09-26T14:59:25.338Z,95810.91
2022-09-26T15:01:55.052Z,95806.44
2022-09-26T15:04:25.890Z,95794.88
2022-09-26T15:07:06.024Z,95784.41
2022-09-26T15:09:40.681Z,95797.16
2022-09-26T15:12:30.458Z,95777.13
2022-09-26T15:15:17.161Z,95793.38
2022-09-26T15:17:52.922Z,95786.66
2022-09-26T15:20:23.958Z,95773.41
2022-09-26T15:22:52.663Z,95769.34
2022-09-26T15:25:31.839Z,95769.75
2022-09-26T15:27:59.199Z,95774.31
2022-09-26T15:30:37.481Z,95760.00
2022-09-26T15:33:04.242Z,95766.72
2022-09-26T15:35:31.713Z,95759.66
2022-09-26T15:38:11.538Z,95755.56
2022-09-26T15:40:38.415Z,95751.31
2022-09-26T15:43:12.265Z,95754.41
2022-09-26T15:45:48.282Z,95754.03
2022-09-26T15:48:20.883Z,95747.69
2022-09-26T15:50:49.370Z,95744.41
2022-09-26T15:53:34.086Z,95738.72
2022-09-26T15:56:13.031Z,95725.22
2022-09-26T15:58:39.294Z,95733.00
2022-09-26T16:01:08.890Z,95722.63
2022-09-26T16:03:43.134Z,95722.88
2022-09-26T16:06:37.698Z,95725.06
2022-09-26T16:09:08.814Z,95723.97
2022-09-26T16:11:46.211Z,95720.72
2022-09-26T16:14:33.363Z,95726.47
2022-09-26T16:17:28.299Z,95744.00
2022-09-26T16:19:57.709Z,95737.78
2022-09-26T16:22:36.690Z,95742.41
2022-09-26T16:25:15.206Z,95733.19
2022-09-26T16:27:41.736Z,95735.47
2022-09-26T16:30:28.672Z,95726.91
2022-09-26T16:33:11.058Z,95720.84
2022-09-26T16:35:44.717Z,95705.41
2022-09-26T16:38:30.894Z,95698.81
2022-09-26T16:41:08.646Z,95700.31
2022-09-26T16:43:37.508Z,95698.38
2022-09-26T16:46:13.428Z,95700.56
2022-09-26T16:48:56.270Z,95699.25
2022-09-26T16:51:26.033Z,95693.59
2022-09-26T16:54:11.785Z,95692.78
2022-09-26T16:56:41.342Z,95690.75
2022-09-26T16:59:18.336Z,95686.47
2022-09-26T17:01:56.389Z,95675.06
2022-09-26T17:04:34.467Z,95677.75
2022-09-26T17:07:10.027Z,95676.16
2022-09-26T17:09:36.456Z,95682.75
2022-09-26T17:12:06.353Z,95677.91
2022-09-26T17:14:40.625Z,95675.41
2022-09-26T17:17:12.910Z,95673.06
2022-09-26T17:19:41.170Z,95678.00
2022-09-26T17:22:19.150Z,95673.47
2022-09-26T17:24:47.981Z,95661.25
2022-09-26T17:27:27.048Z,95653.88
2022-09-26T17:29:58.798Z,95649.84
2022-09-26T17:32:33.744Z,95656.97
2022-09-26T17:35:03.794Z,95664.34
2022-09-26T17:37:30.316Z,95656.63
2022-09-26T17:39:56.887Z,95659.56
2022-09-26T17:42:23.783Z,95655.53
2022-09-26T17:44:50.491Z,95634.63
2022-09-26T17:47:18.901Z,95646.06
2022-09-26T17:49:51.601Z,95641.13
2022-09-26T17:52:28.854Z,95633.25
2022-09-26T17:54:58.500Z,95638.03
2022-09-26T17:57:29.895Z,95629.97
2022-09-26T17:59:57.238Z,95628.13
2022-09-26T18:02:34.348Z,95617.34
2022-09-26T18:05:18.101Z,95615.09
2022-09-26T18:07:45.881Z,95616.00
2022-09-26T18:10:19.426Z,95605.09
2022-09-26T18:12:48.505Z,95609.22
2022-09-26T18:15:19.471Z,95605.19
2022-09-26T18:17:45.873Z,95591.63
2022-09-26T18:20:12.305Z,95599.91
2022-09-26T18:22:38.718Z,95593.28
2022-09-26T18:25:08.229Z,95592.75
2022-09-26T18:27:40.424Z,95592.56
2022-09-26T18:30:11.667Z,95588.44
2022-09-26T18:32:41.592Z,95597.50
2022-09-26T18:35:16.249Z,95593.28
2022-09-26T18:37:43.492Z,95566.75
2022-09-26T18:40:14.683Z,95574.41
2022-09-26T18:42:44.299Z,95575.47
2022-09-26T18:45:15.076Z,95569.00
2022-09-26T18:47:43.228Z,95579.16
2022-09-26T18:50:24.331Z,95563.41
2022-09-26T18:52:51.223Z,95574.97
2022-09-26T18:55:42.482Z,95567.94
2022-09-26T18:58:29.383Z,95571.84
2022-09-26T19:00:57.719Z,95560.16
2022-09-26T19:03:27.481Z,95559.66
2022-09-26T19:06:10.449Z,95555.69
2022-09-26T19:08:39.868Z,95560.66
2022-09-26T19:11:13.136Z,95558.06
2022-09-26T19:13:41.066Z,95557.72
2022-09-26T19:16:08.329Z,95551.00
2022-09-26T19:18:38.464Z,95539.91
2022-09-26T19:21:08.057Z,95542.06
2022-09-26T19:23:36.421Z,95534.94
2022-09-26T19:26:05.640Z,95534.88
2022-09-26T19:28:35.339Z,95536.56
2022-09-26T19:31:03.470Z,95533.97
2022-09-26T19:33:29.981Z,95523.91
2022-09-26T19:35:56.494Z,95526.94
2022-09-26T19:38:25.557Z,95526.34
2022-09-26T19:40:53.543Z,95506.25
2022-09-26T19:43:21.198Z,95513.78
2022-09-26T19:45:52.872Z,95517.66
2022-09-26T19:48:23.430Z,95514.72
2022-09-26T19:50:52.341Z,95513.75
2022-09-26T19:53:21.033Z,95501.75
2022-09-26T19:55:50.151Z,95511.47
2022-09-26T19:58:18.422Z,95499.41
2022-09-26T20:00:49.325Z,95510.41
2022-09-26T20:03:18.302Z,95500.13
2022-09-26T20:05:46.450Z,95485.56
2022-09-26T20:08:16.608Z,95482.19
2022-09-26T20:10:43.290Z,95473.69
2022-09-26T20:13:09.630Z,95468.84
2022-09-26T20:15:36.099Z,95477.38
2022-09-26T20:18:03.008Z,95467.66
2022-09-26T20:20:31.558Z,95457.03
2022-09-26T20:22:58.519Z,95464.16
2022-09-26T20:25:27.685Z,95470.19
2022-09-26T20:27:54.634Z,95453.13
2022-09-26T20:30:40.233Z,95439.66
2022-09-26T20:33:07.058Z,95454.72
2022-09-26T20:35:36.872Z,95449.47
2022-09-26T20:38:07.549Z,95429.28
2022-09-26T20:40:34.839Z,95432.81
2022-09-26T20:43:05.856Z,95436.41
2022-09-26T20:45:38.345Z,95439.66
2022-09-26T20:48:16.525Z,95435.47
2022-09-26T20:50:42.901Z,95425.69
2022-09-26T20:53:20.717Z,95435.41
2022-09-26T20:55:47.889Z,95433.97
2022-09-26T20:58:14.685Z,95422.94
2022-09-26T21:00:42.400Z,95417.34
2022-09-26T21:03:12.091Z,95408.72
2022-09-26T21:05:38.959Z,95412.16
2022-09-26T21:08:13.399Z,95405.44
2022-09-26T21:10:40.020Z,95393.09
2022-09-26T21:13:06.381Z,95404.63
2022-09-26T21:15:33.435Z,95390.66
2022-09-26T21:18:00.976Z,95388.31
2022-09-26T21:20:32.375Z,95396.00
2022-09-26T21:23:01.672Z,95393.41
2022-09-26T21:25:31.199Z,95387.75
2022-09-26T21:28:01.401Z,95391.16
2022-09-26T21:30:28.961Z,95381.47
2022-09-26T21:32:57.757Z,95386.31
2022-09-26T21:35:28.781Z,95385.63
2022-09-26T21:37:56.896Z,95387.03
2022-09-26T21:40:26.998Z,95378.38
2022-09-26T21:43:00.175Z,95369.16
2022-09-26T21:45:27.742Z,95378.28
2022-09-26T21:47:56.833Z,95378.94
2022-09-26T21:50:27.557Z,95374.25
2022-09-26T21:52:59.479Z,95366.31
2022-09-26T21:55:33.503Z,95354.72
2022-09-26T21:58:05.408Z,95348.38
2022-09-26T22:00:31.757Z,95353.78
2022-09-26T22:02:59.551Z,95355.34
2022-09-26T22:05:26.012Z,95345.31
2022-09-26T22:07:52.473Z,95344.56
2022-09-26T22:10:19.210Z,95347.16
2022-09-26T22:12:45.568Z,95347.16
2022-09-26T22:15:11.910Z,95341.91
2022-09-26T22:17:38.389Z,95332.97
2022-09-26T22:20:05.437Z,95328.53
2022-09-26T22:22:31.838Z,95331.13
2022-09-26T22:25:02.517Z,95337.06
2022-09-26T22:27:28.993Z,95325.94
2022-09-26T22:29:55.360Z,95334.75
2022-09-26T22:32:22.088Z,95330.44
2022-09-26T22:34:49.118Z,95329.50
2022-09-26T22:37:15.984Z,95324.91
2022-09-26T22:39:42.348Z,95331.75
2022-09-26T22:42:08.726Z,95319.47
2022-09-26T22:44:35.743Z,95330.25
2022-09-26T22:47:02.103Z,95328.09
2022-09-26T22:49:28.652Z,95332.09
2022-09-26T22:51:55.041Z,95326.84
2022-09-26T22:54:21.543Z,95329.56
2022-09-26T22:56:47.996Z,95327.59
2022-09-26T22:59:15.432Z,95320.56
2022-09-26T23:01:41.910Z,95303.59
2022-09-26T23:04:08.312Z,95311.47
2022-09-26T23:06:34.671Z,95307.63
2022-09-26T23:09:01.035Z,95299.38
2022-09-26T23:11:27.930Z,95320.81
2022-09-26T23:13:54.393Z,95304.44
2022-09-26T23:16:23.643Z,95315.22
2022-09-26T23:18:51.401Z,95303.69
2022-09-26T23:21:20.578Z,95302.53
2022-09-26T23:23:52.750Z,95296.53
2022-09-26T23:26:23.652Z,95299.00
2022-09-26T23:28:51.617Z,95305.69
2022-09-26T23:31:18.513Z,95295.09
2022-09-26T23:33:45.239Z,95284.22
2022-09-26T23:36:12.023Z,95285.13
2022-09-26T23:38:39.564Z,95287.06
2022-09-26T23:41:07.345Z,95280.13
2022-09-26T23:43:33.958Z,95285.41
2022-09-26T23:46:00.488Z,95285.13
2022-09-26T23:48:27.016Z,95268.28
2022-09-26T23:50:53.660Z,95262.47
2022-09-26T23:53:22.109Z,95272.44
2022-09-26T23:55:48.630Z,95260.72
2022-09-26T23:58:15.076Z,95277.94
